Terminal Aerodrome Forecast
Issued by NWS Greer, SC

Home | Current Version | Previous Version | Text Only | Print | Product List | Glossary On
Versions: 1 2 3 4 5 6 7 8 9 10 11 12
001
FTUS42 KGSP 281131
TAFGSP
TAF
KGSP 281131Z 2812/2912 02004KT P6SM FEW080
     FM281700 10006KT P6SM FEW060
     FM282100 16006KT P6SM FEW060
     FM290800 VRB03KT P6SM SCT250=

USA.gov is the U.S. government's official web portal to all federal, state and local government web resources and services.